Time;durP1;ratioP1;P1;durP2;ratioP2;P2;SDS_P1;SDS_P2;PMS_P1;PMS_P2;Temp;Humidity;BMP_temperature;BMP_pressure;BME280_temperature;BME280_humidity;BME280_pressure;Samples;Min_cycle;Max_cycle;Signal;HPM_P1;HPM_P2
2021/03/28 00:02:23;;;;;;;;;;;7.50;80.50;;;6.61;55.26;96939.69;10323702;28;2511;-87
2021/03/28 00:07:25;;;;;;;;;;;7.50;80.50;;;6.61;54.79;96937.00;10327361;28;2215;-86
2021/03/28 00:12:27;;;;;;;;;;;8.30;80.60;;;6.58;54.88;96945.47;10324105;28;1960;-86
2021/03/28 00:17:29;;;;;;;;;;;8.30;80.30;;;6.57;54.76;96938.50;10315052;28;2205;-86
2021/03/28 00:22:31;;;;;;;;;;;8.80;80.60;;;6.58;54.76;96946.31;10317533;28;2691;-86
2021/03/28 00:27:33;;;;;;;;;;;7.60;79.60;;;6.58;54.19;96946.31;10327676;28;1894;-87
2021/03/28 00:32:35;;;;;;;;;;;7.60;79.40;;;6.59;53.98;96947.13;10315603;28;1507;-87
2021/03/28 00:37:37;;;;;;;;;;;7.60;79.30;;;6.57;53.82;96936.66;10307352;28;1898;-86
2021/03/28 00:42:39;;;;;;;;;;;8.70;79.60;;;6.57;52.83;96949.19;10293430;28;2529;-87
2021/03/28 00:47:41;;;;;;;;;;;7.60;78.30;;;6.57;53.09;96943.84;10291496;28;2178;-87
2021/03/28 00:52:43;;;;;;;;;;;8.90;79.00;;;6.59;53.34;96947.13;10296195;28;1455;-86
2021/03/28 00:57:45;;;;;;;;;;;7.60;78.30;;;6.57;53.24;96938.50;10297507;28;2663;-87
2021/03/28 01:02:47;;;;;;;;;;;7.50;77.90;;;6.58;53.06;96934.78;10291769;28;2450;-87
2021/03/28 01:07:48;;;;;;;;;;;7.50;77.60;;;6.59;52.42;96933.75;10292336;28;2303;-86
2021/03/28 01:12:50;;;;;;;;;;;7.50;77.60;;;6.60;52.03;96930.03;10295004;28;2325;-86
2021/03/28 01:17:52;;;;;;;;;;;7.60;77.00;;;6.56;52.12;96923.53;10302977;28;2014;-87
2021/03/28 01:22:54;;;;;;;;;;;7.60;77.30;;;6.56;52.12;96924.34;10301330;28;1859;-87
2021/03/28 01:27:56;;;;;;;;;;;7.50;77.20;;;6.56;52.08;96915.50;10296730;28;2116;-85
2021/03/28 01:32:58;;;;;;;;;;;7.50;76.90;;;6.59;51.92;96907.03;10301645;28;2982;-87
2021/03/28 01:38:00;;;;;;;;;;;7.50;76.90;;;6.55;51.96;96903.16;10310342;28;2513;-87
2021/03/28 01:43:05;;;;;;;;;;;7.50;76.80;;;6.49;52.13;96907.56;10310398;28;2431;-88
2021/03/28 01:48:07;;;;;;;;;;;7.50;76.90;;;6.40;52.82;96904.34;10305525;28;1971;-88
2021/03/28 01:53:08;;;;;;;;;;;7.40;77.20;;;6.33;54.16;96908.91;10310142;28;2168;-87
2021/03/28 01:58:12;;;;;;;;;;;7.40;78.30;;;6.31;54.38;96902.16;10291505;28;1923;-86
2021/03/28 02:03:14;;;;;;;;;;;7.30;78.80;;;6.28;55.03;96905.25;10295617;28;2896;-87
2021/03/28 02:08:16;;;;;;;;;;;7.30;79.40;;;6.27;55.73;96912.47;10307833;28;2342;-87
2021/03/28 02:13:18;;;;;;;;;;;7.30;79.70;;;6.24;55.38;96902.22;10298503;28;2474;-88
2021/03/28 02:18:20;;;;;;;;;;;7.20;80.00;;;6.15;55.86;96898.19;10303433;28;2107;-87
2021/03/28 02:23:23;;;;;;;;;;;7.60;80.50;;;6.10;56.39;96898.00;10293661;28;1767;-87
2021/03/28 02:28:24;;;;;;;;;;;7.20;80.80;;;6.08;56.71;96900.09;10295357;28;2163;-85
2021/03/28 02:33:26;;;;;;;;;;;7.10;81.30;;;6.01;57.29;96899.31;10295621;28;2350;-86
2021/03/28 02:38:28;;;;;;;;;;;7.10;81.60;;;5.99;57.41;96893.41;10284330;28;2549;-86
2021/03/28 02:43:31;;;;;;;;;;;8.20;82.60;;;5.93;57.81;96889.75;10298641;28;2176;-85
2021/03/28 02:48:34;;;;;;;;;;;7.00;82.10;;;5.87;58.00;96891.38;10305242;28;1894;-84
2021/03/28 02:53:36;;;;;;;;;;;6.90;82.40;;;5.88;57.99;96892.22;10310797;28;2487;-86
2021/03/28 02:58:38;;;;;;;;;;;7.10;82.70;;;5.87;57.55;96907.41;10324772;28;2162;-86
2021/03/28 03:03:40;;;;;;;;;;;6.90;82.60;;;5.91;57.81;96905.94;10329563;28;2542;-85
2021/03/28 03:08:42;;;;;;;;;;;7.00;82.90;;;5.83;57.82;96900.84;10319408;28;1898;-86
2021/03/28 03:13:44;;;;;;;;;;;6.90;82.80;;;5.86;58.15;96900.44;10334868;28;1690;-86
2021/03/28 03:18:46;;;;;;;;;;;6.90;82.90;;;5.83;58.27;96897.38;10316512;28;1339;-88
2021/03/28 03:23:49;;;;;;;;;;;6.90;83.20;;;5.77;58.21;96901.72;10307485;28;2150;-86
2021/03/28 03:28:51;;;;;;;;;;;6.80;83.20;;;5.72;58.72;96904.19;10305848;28;1899;-87
2021/03/28 03:33:53;;;;;;;;;;;6.80;83.60;;;5.64;58.82;96902.63;10275826;28;1916;-87
2021/03/28 03:38:55;;;;;;;;;;;6.70;83.80;;;5.57;59.22;96909.03;10310734;28;2191;-88
2021/03/28 03:43:57;;;;;;;;;;;6.60;84.00;;;5.51;59.55;96908.03;10300728;28;1990;-86
2021/03/28 03:48:59;;;;;;;;;;;6.60;84.30;;;5.41;59.61;96907.69;10298402;28;2378;-87
2021/03/28 03:54:03;;;;;;;;;;;7.50;85.10;;;5.34;59.93;96915.72;10290746;28;2297;-88
2021/03/28 03:59:05;;;;;;;;;;;7.10;85.10;;;5.36;59.40;96924.31;10322872;28;2405;-85
2021/03/28 04:04:07;;;;;;;;;;;6.40;84.80;;;5.24;60.06;96918.00;10302192;28;2152;-85
2021/03/28 04:09:09;;;;;;;;;;;6.60;85.00;;;5.09;60.79;96925.44;10293832;28;2346;-85
2021/03/28 04:14:11;;;;;;;;;;;6.20;85.40;;;4.89;61.69;96926.31;10304691;28;2290;-86
2021/03/28 04:19:13;;;;;;;;;;;6.80;86.30;;;4.72;62.21;96924.34;10304687;28;2357;-86
2021/03/28 04:24:23;;;;;;;;;;;5.90;86.30;;;4.53;62.72;96926.00;10286937;28;2382;-86
2021/03/28 04:29:24;;;;;;;;;;;7.30;87.70;;;4.38;63.64;96933.38;10281859;28;1981;-87
2021/03/28 04:34:26;;;;;;;;;;;6.70;88.20;;;4.23;63.93;96933.59;10289641;28;2262;-88
2021/03/28 04:39:28;;;;;;;;;;;6.80;88.50;;;4.13;64.70;96938.50;10277947;28;2199;-87
2021/03/28 04:44:30;;;;;;;;;;;6.20;88.90;;;4.06;64.48;96943.81;10302900;28;2134;-87
2021/03/28 04:49:32;;;;;;;;;;;6.80;89.50;;;3.97;64.73;96950.38;10289160;28;1981;-87
2021/03/28 04:54:44;;;;;;;;;;;5.80;89.20;;;3.89;64.94;96948.72;10299397;28;2286;-87
2021/03/28 04:59:46;;;;;;;;;;;5.10;89.10;;;3.81;64.68;96959.53;10279290;28;1700;-88
2021/03/28 05:04:48;;;;;;;;;;;6.20;89.90;;;3.78;65.36;96976.72;10300434;28;2401;-87
2021/03/28 05:09:50;;;;;;;;;;;4.90;89.60;;;3.78;65.60;96975.91;10294771;28;2167;-85
2021/03/28 05:14:52;;;;;;;;;;;5.00;90.00;;;3.90;65.04;96984.13;10286483;28;2401;-86
2021/03/28 05:19:54;;;;;;;;;;;5.50;90.50;;;3.95;64.85;96987.81;10294000;28;1779;-87
2021/03/28 05:25:05;;;;;;;;;;;6.30;90.70;;;4.14;63.71;96985.41;10305015;28;2347;-87
2021/03/28 05:30:07;;;;;;;;;;;5.10;89.60;;;4.29;63.08;96988.69;10289620;28;2305;-87
2021/03/28 05:35:09;;;;;;;;;;;6.40;89.80;;;4.41;62.46;97002.19;10297895;28;2290;-87
2021/03/28 05:40:11;;;;;;;;;;;5.30;88.80;;;4.70;61.77;97006.28;10306886;28;2349;-87
2021/03/28 05:45:13;;;;;;;;;;;5.50;88.50;;;5.04;60.69;97005.22;10341093;28;1658;-88
2021/03/28 05:50:19;;;;;;;;;;;6.00;87.90;;;5.32;59.23;97008.41;10323950;28;1945;-87
2021/03/28 05:55:30;;;;;;;;;;;6.10;86.80;;;5.47;58.53;97010.00;10334315;28;2311;-84
2021/03/28 06:00:32;;;;;;;;;;;6.30;85.80;;;5.56;58.27;97016.75;10340838;28;2313;-87
2021/03/28 06:05:34;;;;;;;;;;;6.50;85.20;;;5.61;58.13;97016.94;10341259;28;2354;-85
2021/03/28 06:10:36;;;;;;;;;;;6.50;84.80;;;5.85;57.26;97018.88;10310184;28;1977;-86
2021/03/28 06:15:38;;;;;;;;;;;6.70;84.30;;;5.97;56.57;97030.53;10316699;28;2278;-85
2021/03/28 06:20:40;;;;;;;;;;;6.90;83.60;;;6.28;55.04;97042.25;10295618;28;2310;-86
2021/03/28 06:25:50;;;;;;;;;;;7.00;82.60;;;6.39;54.89;97046.09;10301870;28;2385;-87
2021/03/28 06:30:52;;;;;;;;;;;7.20;82.20;;;6.47;54.76;97043.97;10305273;28;1988;-87
2021/03/28 06:35:54;;;;;;;;;;;7.30;81.60;;;6.97;53.41;97057.38;10336310;28;2321;-85
2021/03/28 06:40:56;;;;;;;;;;;7.60;81.20;;;7.43;51.75;97061.44;10321002;28;2432;-87
2021/03/28 06:45:58;;;;;;;;;;;8.00;80.10;;;7.83;51.25;97061.00;10326830;28;1970;-86
2021/03/28 06:51:00;;;;;;;;;;;8.30;79.00;;;8.04;49.65;97062.41;10299528;28;2323;-86
2021/03/28 06:56:15;;;;;;;;;;;8.60;77.50;;;8.47;48.50;97074.84;10294691;28;1982;-86
2021/03/28 07:01:17;;;;;;;;;;;8.90;76.90;;;8.42;48.16;97075.50;10295758;28;1356;-88
2021/03/28 07:06:19;;;;;;;;;;;9.10;75.70;;;8.28;48.72;97084.75;10290926;28;2376;-86
2021/03/28 07:11:23;;;;;;;;;;;9.10;75.60;;;8.55;48.14;97086.03;10295318;28;2353;-87
2021/03/28 07:16:25;;;;;;;;;;;9.40;75.30;;;8.47;48.26;97078.31;10293978;28;1990;-87
2021/03/28 07:21:27;;;;;;;;;;;9.20;74.80;;;8.73;47.25;97073.63;10304370;28;2374;-89
2021/03/28 07:26:35;;;;;;;;;;;9.30;74.30;;;8.72;46.26;97080.03;10307140;28;2409;-86
2021/03/28 07:31:37;;;;;;;;;;;9.50;73.40;;;8.79;46.60;97070.03;10291299;28;2281;-85
2021/03/28 07:36:39;;;;;;;;;;;9.50;73.30;;;9.14;45.45;97072.72;10291488;28;2022;-86
2021/03/28 07:41:41;;;;;;;;;;;9.70;72.90;;;9.41;44.78;97089.19;10290677;28;2278;-85
2021/03/28 07:46:43;;;;;;;;;;;10.50;71.90;;;9.85;42.87;97082.34;10290135;28;2398;-87
2021/03/28 07:51:45;;;;;;;;;;;10.40;70.30;;;10.29;42.13;97077.34;10317033;28;2174;-87
2021/03/28 07:57:03;;;;;;;;;;;10.70;69.70;;;10.27;42.68;97072.22;10296590;28;2496;-86
2021/03/28 08:02:05;;;;;;;;;;;11.00;69.20;;;10.46;42.86;97070.16;10289161;28;2391;-87
2021/03/28 08:07:08;;;;;;;;;;;11.20;69.20;;;10.07;43.12;97071.81;10298392;28;2341;-87
2021/03/28 08:12:10;;;;;;;;;;;11.10;68.60;;;9.88;43.13;97055.03;10326946;28;2242;-85
2021/03/28 08:17:12;;;;;;;;;;;11.00;68.50;;;10.23;43.05;97044.19;10325298;28;1299;-85
2021/03/28 08:22:14;;;;;;;;;;;11.00;68.70;;;10.57;41.93;97060.41;10299421;28;1930;-87
2021/03/28 08:27:22;;;;;;;;;;;11.40;67.80;;;10.75;41.22;97054.81;10304625;28;2275;-86
2021/03/28 08:32:24;;;;;;;;;;;11.70;66.70;;;11.15;40.15;97061.91;10302914;28;2155;-87
2021/03/28 08:37:27;;;;;;;;;;;11.90;66.20;;;11.44;40.93;97059.09;10304403;28;2325;-85
2021/03/28 08:42:29;;;;;;;;;;;12.10;66.80;;;11.29;40.10;97071.28;10301647;28;2308;-87
2021/03/28 08:47:31;;;;;;;;;;;12.10;65.70;;;11.62;39.22;97074.97;10293510;28;1977;-85
2021/03/28 08:52:32;;;;;;;;;;;12.30;65.00;;;11.99;37.97;97069.03;10291439;28;2285;-84
2021/03/28 08:57:44;;;;;;;;;;;12.80;63.60;;;12.48;38.14;97059.09;10297488;28;2353;-86
2021/03/28 09:02:46;;;;;;;;;;;13.00;63.60;;;12.31;36.50;97063.75;10316504;28;2443;-87
2021/03/28 09:07:49;;;;;;;;;;;13.20;61.90;;;12.12;37.75;97044.41;10297988;28;2180;-87
2021/03/28 09:12:52;;;;;;;;;;;13.10;61.80;;;12.32;37.56;97052.69;10300335;28;2667;-88
2021/03/28 09:17:54;;;;;;;;;;;13.00;62.00;;;11.96;35.84;97050.66;10306324;28;2243;-89
2021/03/28 09:22:56;;;;;;;;;;;13.10;59.90;;;12.07;35.66;97061.31;10289697;28;1874;-87
2021/03/28 09:28:07;;;;;;;;;;;12.90;60.60;;;12.58;34.53;97052.97;10309496;28;2191;-84
2021/03/28 09:33:09;;;;;;;;;;;13.30;59.70;;;12.26;35.07;97042.94;10328073;28;2312;-88
2021/03/28 09:38:11;;;;;;;;;;;13.20;58.70;;;12.28;34.03;97042.66;10309931;28;2319;-87
2021/03/28 09:43:13;;;;;;;;;;;13.20;58.20;;;12.22;34.72;97049.09;10302153;28;2169;-88
2021/03/28 09:48:15;;;;;;;;;;;13.10;58.00;;;11.97;35.72;97057.69;10307330;28;2132;-88
2021/03/28 09:53:18;;;;;;;;;;;13.00;58.30;;;12.22;33.93;97028.34;10285158;28;2283;-88
2021/03/28 09:58:34;;;;;;;;;;;13.10;58.30;;;12.12;35.32;97020.13;10289206;28;2362;-88
2021/03/28 10:03:37;;;;;;;;;;;13.20;57.80;;;12.41;35.01;97024.22;10307353;28;2359;-88
2021/03/28 10:08:39;;;;;;;;;;;13.30;57.80;;;12.85;33.84;97031.34;10293854;28;2655;-87
2021/03/28 10:13:41;;;;;;;;;;;13.60;57.60;;;13.13;33.69;97009.44;10288438;28;2009;-86
2021/03/28 10:18:44;;;;;;;;;;;14.00;56.70;;;12.90;33.01;97016.03;10285225;28;2373;-88
2021/03/28 10:23:46;;;;;;;;;;;14.10;55.80;;;12.86;33.94;97012.22;10287366;28;2228;-87
2021/03/28 10:28:52;;;;;;;;;;;14.00;56.40;;;12.56;34.97;97001.16;10299060;28;2145;-87
2021/03/28 10:33:55;;;;;;;;;;;13.70;57.10;;;12.80;33.86;96997.06;10304586;28;2273;-87
2021/03/28 10:38:57;;;;;;;;;;;13.80;57.20;;;12.73;35.04;97011.84;10292607;28;2578;-86
2021/03/28 10:43:59;;;;;;;;;;;13.80;57.30;;;12.44;35.61;97010.22;10319235;28;2636;-87
2021/03/28 10:49:03;;;;;;;;;;;13.60;57.40;;;12.69;35.09;96989.94;10324511;28;2648;-88
2021/03/28 10:54:06;;;;;;;;;;;13.70;57.70;;;12.59;35.66;97000.63;10301601;28;2311;-88
2021/03/28 10:59:16;;;;;;;;;;;13.70;57.70;;;12.13;34.82;96997.50;10311156;28;2018;-86
2021/03/28 11:04:18;;;;;;;;;;;13.50;56.70;;;12.39;34.76;96999.38;10338803;28;2397;-86
2021/03/28 11:09:20;;;;;;;;;;;13.40;56.80;;;12.10;35.23;96990.75;10323353;28;2132;-86
2021/03/28 11:14:22;;;;;;;;;;;13.20;57.10;;;12.23;33.04;97000.31;10301708;28;2309;-88
2021/03/28 11:19:24;;;;;;;;;;;13.30;55.30;;;12.23;33.01;96994.94;10297211;28;2208;-87
2021/03/28 11:24:39;;;;;;;;;;;13.30;55.20;;;12.37;33.78;96988.06;10285809;28;2263;-88
2021/03/28 11:29:41;;;;;;;;;;;13.40;55.50;;;12.25;33.14;96987.38;10284972;28;2209;-86
2021/03/28 11:34:44;;;;;;;;;;;13.40;54.70;;;11.88;34.12;96989.94;10284784;28;2215;-87
2021/03/28 11:39:46;;;;;;;;;;;13.00;55.40;;;11.58;34.90;96985.00;10289128;28;2278;-87
2021/03/28 11:44:47;;;;;;;;;;;12.80;55.60;;;11.64;35.44;96978.59;10295414;28;2219;-87
2021/03/28 11:49:49;;;;;;;;;;;12.70;56.40;;;11.56;36.11;96971.75;10283296;28;2516;-85
2021/03/28 11:54:51;;;;;;;;;;;12.60;57.40;;;11.70;36.86;96966.00;10276092;28;2267;-86
2021/03/28 12:00:05;;;;;;;;;;;12.70;58.20;;;11.93;36.75;96964.94;10296814;28;1764;-86
2021/03/28 12:05:07;;;;;;;;;;;12.80;58.20;;;12.30;35.29;96954.28;10298334;28;2232;-87
2021/03/28 12:10:09;;;;;;;;;;;13.20;57.20;;;12.38;34.15;96945.72;10288161;28;2279;-87
2021/03/28 12:15:11;;;;;;;;;;;13.40;56.30;;;12.31;34.42;96945.94;10298260;28;2251;-89
2021/03/28 12:20:13;;;;;;;;;;;13.40;56.40;;;12.49;34.74;96939.34;10293579;28;2110;-87
2021/03/28 12:25:16;;;;;;;;;;;13.50;56.70;;;12.47;34.71;96929.88;10288281;28;2275;-88
2021/03/28 12:30:25;;;;;;;;;;;13.20;56.60;;;12.51;34.41;96942.59;10291350;28;2219;-85
2021/03/28 12:35:26;;;;;;;;;;;13.50;56.20;;;12.45;34.55;96933.66;10291212;28;2427;-88
2021/03/28 12:40:29;;;;;;;;;;;13.50;55.80;;;12.31;34.31;96924.34;10296662;28;2191;-89
2021/03/28 12:45:31;;;;;;;;;;;13.40;55.90;;;12.54;34.24;96917.00;10305795;28;1332;-88
2021/03/28 12:50:36;;;;;;;;;;;13.50;56.10;;;12.55;33.99;96908.66;10312945;28;2446;-89
2021/03/28 12:55:42;;;;;;;;;;;13.50;55.30;;;13.06;33.73;96902.78;10284194;28;2734;-86
2021/03/28 13:01:01;;;;;;;;;;;13.80;55.90;;;13.41;32.53;96905.66;10302624;28;1776;-87
2021/03/28 13:06:08;;;;;;;;;;;14.20;54.70;;;13.37;30.93;96896.50;10292055;28;2287;-87
2021/03/28 13:11:16;;;;;;;;;;;14.40;53.50;;;13.15;30.90;96906.59;10299129;28;1914;-87
2021/03/28 13:16:21;;;;;;;;;;;14.20;52.90;;;13.04;31.44;96894.94;10322247;28;1855;-87
2021/03/28 13:21:34;;;;;;;;;;;14.00;52.90;;;12.87;31.34;96889.72;10306601;28;1903;-89
2021/03/28 13:26:51;;;;;;;;;;;13.90;53.10;;;12.86;32.03;96880.00;10309645;28;1910;-88
2021/03/28 13:31:59;;;;;;;;;;;13.90;53.20;;;13.17;32.01;96867.47;10316293;28;1300;-88
2021/03/28 13:37:05;;;;;;;;;;;14.00;53.60;;;13.30;31.11;96866.22;10300948;28;2401;-87
2021/03/28 13:42:18;;;;;;;;;;;14.20;53.20;;;13.37;30.65;96864.09;10306721;28;2017;-88
2021/03/28 13:47:23;;;;;;;;;;;14.30;52.60;;;13.11;31.41;96862.31;10315539;28;2738;-87
2021/03/28 13:52:25;;;;;;;;;;;14.20;52.00;;;13.19;31.26;96865.31;10303543;28;1930;-87
2021/03/28 13:57:36;;;;;;;;;;;14.10;52.30;;;13.15;30.90;96863.41;10326649;28;1961;-89
2021/03/28 14:03:04;;;;;;;;;;;14.20;52.30;;;13.38;30.83;96865.69;10338534;28;1637;-89
2021/03/28 14:08:09;;;;;;;;;;;14.30;52.40;;;13.38;31.13;96865.69;10322216;28;1879;-87
2021/03/28 14:13:19;;;;;;;;;;;14.30;52.60;;;13.35;30.40;96863.50;10339039;28;1261;-87
2021/03/28 14:18:27;;;;;;;;;;;14.30;52.10;;;13.33;31.61;96857.56;10337005;28;1483;-89
2021/03/28 14:23:33;;;;;;;;;;;14.40;52.50;;;13.44;32.21;96861.13;10325690;28;1395;-87
2021/03/28 14:28:41;;;;;;;;;;;14.40;53.10;;;13.42;31.99;96849.75;10321689;28;1899;-89
2021/03/28 14:33:47;;;;;;;;;;;14.50;53.00;;;13.43;31.36;96854.09;10319059;28;1355;-88
2021/03/28 14:38:54;;;;;;;;;;;14.40;53.00;;;13.46;30.68;96845.47;10317642;28;1261;-89
2021/03/28 14:44:01;;;;;;;;;;;14.40;51.70;;;13.26;30.63;96848.91;10325476;28;1308;-87
2021/03/28 14:49:13;;;;;;;;;;;14.40;51.20;;;13.14;31.70;96840.19;10309989;28;1891;-88
2021/03/28 14:54:18;;;;;;;;;;;14.20;52.20;;;13.26;31.21;96821.91;10311911;28;2322;-88
2021/03/28 14:59:27;;;;;;;;;;;14.20;52.10;;;13.27;30.73;96828.94;10307434;28;1593;-88
2021/03/28 15:10:22;;;;;;;;;;;14.30;51.50;;;13.25;31.90;96812.19;10311568;28;2073;-87
2021/03/28 15:21:32;;;;;;;;;;;;;;;;;;;;;
2021/03/28 15:32:15;;;;;;;;;;;14.20;52.50;;;13.17;31.40;96810.78;10312806;28;2204;-86
2021/03/28 15:37:28;;;;;;;;;;;14.20;52.50;;;13.10;32.50;96807.50;10324793;28;2148;-88
2021/03/28 15:42:58;;;;;;;;;;;14.10;53.00;;;13.10;31.42;96806.69;10314635;28;2667;-87
2021/03/28 15:48:14;;;;;;;;;;;14.10;52.60;;;13.01;31.55;96797.47;10337151;28;1948;-88
2021/03/28 15:53:29;;;;;;;;;;;14.10;52.40;;;12.98;31.33;96794.25;10336576;23;2318;-88
2021/03/28 15:58:45;;;;;;;;;;;14.00;52.30;;;13.04;31.65;96794.25;10270526;28;2058;-90
2021/03/28 16:04:03;;;;;;;;;;;14.00;52.10;;;12.97;31.87;96797.19;10285167;28;1837;-91
2021/03/28 16:09:08;;;;;;;;;;;14.00;52.10;;;12.95;30.23;96799.34;10285393;28;2203;-86
2021/03/28 16:14:26;;;;;;;;;;;14.00;51.30;;;13.04;30.58;96796.94;10281944;28;2517;-88
2021/03/28 16:36:51;;;;;;;;;;;13.90;51.20;;;12.91;30.57;96796.34;10317599;28;1411;-89
2021/03/28 17:15:09;;;;;;;;;;;;;;;;;;;;;
2021/03/28 17:20:37;;;;;;;;;;;13.30;52.70;;;11.89;34.19;96817.25;10265359;28;2371;-88
2021/03/28 17:31:20;;;;;;;;;;;12.90;53.60;;;11.33;35.30;96824.78;10245141;29;2003;-86
2021/03/28 17:36:22;;;;;;;;;;;12.60;54.00;;;11.18;35.42;96829.16;10237295;29;1348;-90
2021/03/28 17:41:24;;;;;;;;;;;12.40;54.50;;;11.10;35.85;96830.41;10244707;28;1631;-90
2021/03/28 17:46:26;;;;;;;;;;;12.30;55.20;;;11.03;36.26;96848.63;10240738;29;1340;-90
2021/03/28 17:51:28;;;;;;;;;;;12.20;55.50;;;10.90;36.40;96843.63;10259773;28;1984;-87
2021/03/28 17:56:30;;;;;;;;;;;12.10;55.80;;;10.85;36.53;96851.63;10250116;29;1256;-86
2021/03/28 18:01:32;;;;;;;;;;;12.00;55.90;;;10.62;37.24;96852.63;10248661;29;1525;-87
2021/03/28 18:06:36;;;;;;;;;;;11.90;56.50;;;10.38;37.62;96866.28;10240304;28;1398;-84
2021/03/28 18:11:38;;;;;;;;;;;11.70;57.00;;;10.32;38.85;96866.44;10275413;28;1964;-87
2021/03/28 18:16:40;;;;;;;;;;;11.50;57.60;;;10.24;38.21;96868.50;10237810;29;1670;-87
2021/03/28 18:21:41;;;;;;;;;;;11.50;57.60;;;10.07;39.42;96877.56;10229206;29;1485;-88
2021/03/28 18:26:43;;;;;;;;;;;11.30;58.30;;;10.03;39.32;96883.41;10238970;29;1258;-87
2021/03/28 18:31:46;;;;;;;;;;;11.20;58.70;;;9.92;39.70;96888.84;10314750;23;3621;-86
2021/03/28 18:36:48;;;;;;;;;;;11.20;58.90;;;9.85;39.65;96893.56;10304640;28;1500;-88
2021/03/28 18:41:50;;;;;;;;;;;11.10;59.20;;;9.73;41.61;96896.28;10272442;29;1689;-88
2021/03/28 18:46:52;;;;;;;;;;;11.00;60.30;;;9.62;41.71;96895.31;10291637;28;1941;-87
2021/03/28 18:51:54;;;;;;;;;;;10.80;60.60;;;9.62;40.94;96895.31;10277376;28;1639;-86
2021/03/28 18:56:59;;;;;;;;;;;10.70;60.80;;;9.51;41.60;96901.53;10292231;28;1293;-86
2021/03/28 19:02:04;;;;;;;;;;;10.70;61.40;;;9.48;41.97;96907.38;10293418;28;1599;-85
2021/03/28 19:07:07;;;;;;;;;;;10.60;61.60;;;9.48;41.99;96907.38;10286659;28;1915;-88
2021/03/28 19:12:09;;;;;;;;;;;10.60;61.80;;;9.43;42.29;96910.78;10275375;28;1527;-87
2021/03/28 19:17:11;;;;;;;;;;;10.60;62.10;;;9.43;41.85;96915.34;10304091;28;1345;-87
2021/03/28 19:22:13;;;;;;;;;;;10.60;62.00;;;9.46;41.53;96918.34;10284249;28;1551;-86
2021/03/28 19:27:18;;;;;;;;;;;10.50;61.90;;;9.51;41.47;96916.81;10258802;29;1957;-88
2021/03/28 19:32:20;;;;;;;;;;;10.50;61.80;;;9.53;41.99;96915.50;10263332;28;1575;-89
2021/03/28 19:37:22;;;;;;;;;;;10.60;61.90;;;9.48;41.55;96918.13;10257730;28;1630;-88
2021/03/28 19:42:24;;;;;;;;;;;10.60;61.90;;;9.51;41.72;96919.50;10258206;29;1391;-88
2021/03/28 19:47:26;;;;;;;;;;;10.50;62.10;;;9.36;41.91;96920.84;10264653;29;1968;-85
2021/03/28 19:52:31;;;;;;;;;;;10.50;61.90;;;9.31;41.53;96933.34;10280309;28;1384;-85
2021/03/28 19:57:33;;;;;;;;;;;10.30;61.90;;;9.14;42.83;96933.25;10269380;28;1694;-85
2021/03/28 20:02:35;;;;;;;;;;;10.30;62.40;;;9.03;42.98;96937.56;10278091;29;1451;-84
2021/03/28 20:07:37;;;;;;;;;;;11.30;63.30;;;8.96;43.02;96939.56;10281658;28;1968;-87
2021/03/28 20:12:40;;;;;;;;;;;10.10;63.10;;;8.86;43.16;96942.03;10274661;28;1666;-87
2021/03/28 20:17:42;;;;;;;;;;;10.00;63.20;;;8.93;42.73;96940.03;10277185;28;1528;-85
2021/03/28 20:22:44;;;;;;;;;;;10.00;62.80;;;8.88;42.15;96956.81;10278208;28;1599;-87
2021/03/28 20:27:46;;;;;;;;;;;9.90;62.70;;;8.83;43.10;96961.25;10268510;28;1895;-86
2021/03/28 20:32:48;;;;;;;;;;;9.90;63.00;;;8.73;42.91;96961.03;10261746;28;1693;-87
2021/03/28 20:37:50;;;;;;;;;;;9.80;62.80;;;8.73;42.92;96961.84;10267700;28;1095;-88
2021/03/28 20:42:57;;;;;;;;;;;11.10;63.60;;;8.64;42.45;96956.00;10282303;28;1233;-84
2021/03/28 20:48:03;;;;;;;;;;;9.70;62.60;;;8.58;42.73;96956.91;10290499;28;1899;-86
2021/03/28 20:53:05;;;;;;;;;;;9.70;62.80;;;8.53;42.82;96964.03;10291742;28;1638;-84
2021/03/28 20:58:07;;;;;;;;;;;10.20;63.10;;;8.41;43.70;96969.38;10295813;28;1382;-85
2021/03/28 21:03:09;;;;;;;;;;;9.60;63.10;;;8.26;43.17;96987.69;10290387;28;1510;-86
2021/03/28 21:08:11;;;;;;;;;;;9.40;63.10;;;8.12;43.53;96979.88;10301626;28;1944;-87
2021/03/28 21:13:14;;;;;;;;;;;9.30;63.40;;;8.00;44.79;96987.03;10295801;28;1708;-86
2021/03/28 21:18:20;;;;;;;;;;;9.20;63.90;;;7.85;45.36;96989.31;10300105;28;1793;-86
2021/03/28 21:23:24;;;;;;;;;;;9.00;64.60;;;7.90;45.57;96985.97;10275446;28;1565;-87
2021/03/28 21:28:26;;;;;;;;;;;9.00;65.40;;;7.82;45.86;96985.25;10287419;28;1947;-88
2021/03/28 21:33:29;;;;;;;;;;;8.90;65.60;;;7.84;46.11;96993.03;10275555;29;2343;-86
2021/03/28 21:38:31;;;;;;;;;;;10.20;66.50;;;7.72;46.11;96994.84;10282629;28;2596;-87
2021/03/28 21:43:33;;;;;;;;;;;8.80;66.20;;;7.80;46.62;96989.19;10289543;28;1532;-86
2021/03/28 21:48:34;;;;;;;;;;;8.80;66.70;;;7.64;47.60;96993.31;10293051;28;2629;-88
2021/03/28 21:53:36;;;;;;;;;;;8.80;67.10;;;7.53;47.57;97005.56;10289616;28;2145;-87
2021/03/28 21:58:38;;;;;;;;;;;9.40;68.00;;;7.49;48.08;97001.69;10288497;28;1959;-86
2021/03/28 22:03:40;;;;;;;;;;;8.60;67.80;;;7.55;48.00;97003.47;10317621;28;2565;-87
2021/03/28 22:08:44;;;;;;;;;;;8.60;68.20;;;7.43;48.70;97007.94;10297836;28;2498;-88
2021/03/28 22:13:46;;;;;;;;;;;8.50;68.70;;;7.38;48.84;97021.19;10286921;28;2285;-86
2021/03/28 22:18:48;;;;;;;;;;;8.50;68.90;;;7.38;48.78;97026.53;10280442;28;1945;-88
2021/03/28 22:23:50;;;;;;;;;;;8.40;69.20;;;7.26;49.33;97022.97;10268973;28;2656;-89
2021/03/28 22:28:51;;;;;;;;;;;8.40;69.50;;;7.20;50.03;97023.84;10276645;29;2398;-87
2021/03/28 22:33:53;;;;;;;;;;;8.30;70.00;;;7.07;50.44;97034.69;10275828;28;2330;-88
2021/03/28 22:38:55;;;;;;;;;;;8.20;70.20;;;7.06;50.83;97033.84;10266513;29;2728;-85
2021/03/28 22:43:57;;;;;;;;;;;8.20;70.80;;;6.92;50.95;97037.66;10270195;29;2315;-85
2021/03/28 22:48:59;;;;;;;;;;;8.10;71.10;;;6.87;51.19;97042.84;10278353;28;2374;-88
2021/03/28 22:54:04;;;;;;;;;;;8.00;71.40;;;6.81;51.82;97046.41;10267408;29;2322;-86
2021/03/28 22:59:06;;;;;;;;;;;7.90;71.90;;;6.77;51.56;97040.69;10273648;29;2735;-88
2021/03/28 23:04:07;;;;;;;;;;;8.90;72.60;;;6.87;51.60;97048.19;10272784;28;2296;-88
2021/03/28 23:09:09;;;;;;;;;;;7.90;72.00;;;6.72;51.87;97045.84;10274151;28;2433;-90
2021/03/28 23:14:11;;;;;;;;;;;7.90;72.00;;;6.72;51.68;97049.34;10275173;28;2295;-88
2021/03/28 23:19:13;;;;;;;;;;;7.80;72.10;;;6.74;51.40;97052.63;10289755;28;2148;-87
2021/03/28 23:24:15;;;;;;;;;;;8.00;72.10;;;6.81;51.65;97049.91;10298091;28;2204;-83
2021/03/28 23:29:16;;;;;;;;;;;7.80;72.00;;;6.79;51.22;97054.63;10297903;28;2251;-82
2021/03/28 23:34:18;;;;;;;;;;;7.80;72.10;;;6.73;51.72;97055.50;10287401;28;2090;-85
2021/03/28 23:39:20;;;;;;;;;;;7.80;72.10;;;6.63;52.20;97056.00;10295992;28;2385;-85
2021/03/28 23:44:22;;;;;;;;;;;7.80;72.40;;;6.61;52.30;97052.72;10297761;28;2419;-83
2021/03/28 23:49:24;;;;;;;;;;;7.70;72.80;;;6.43;52.94;97056.16;10294169;28;2466;-85
2021/03/28 23:54:26;;;;;;;;;;;7.60;73.10;;;6.34;53.33;97065.44;10300633;28;2288;-81
2021/03/28 23:59:28;;;;;;;;;;;7.50;73.70;;;6.33;53.49;97066.47;10297669;28;2091;-84
